Accueil
METAR-TAF:

METAR-TAF

Aéroports :

Montichiari

Brescia, Italie

latitude: 45-24-02N, longitude: 010-18-59E, altitude: 104 m

Observation

Le bulletin a été fait il y a 37 minutes, à 14:20 UTC
Vent 8 kt de ouest/sud-ouest, variant entre sud/sud-ouest et ouest
Température 28°C
Humidité 45%
Pression 1020 hPa
Visibilité 10 km ou plus

METAR: LIPO 141420Z AUTO 24008KT 210V280 9999 NCD 28/15 Q1020

Heure: 16:57 (14:57 UTC)

Prévision

Le bulletin a été fait il y a 3 heures et 57 minutes, à 11:00 UTC
Prévision valable du 14 à 12 UTC au 15 à 12 UTC
Vent 6 kt de ouest
Visibilité 10 km ou plus
pas de nuages en-dessous de 1500 mètres et pas de cumulonimbus.

TAF: LIPO 141100Z 1412/1512 26006KT CAVOK

Observations et prévisions météorologiques de plus de 4000 aéroports (messages METAR et TAF).

Les stations disponibles sont représentées par des disques jaunes et rouges sur la carte.

Passer la souris dessus pour voir le nom de la station.

Cliquer dessus pour voir les observations et prévisions météorologiques.

Pour changer de carte: cliquez sur les boutons verts avec une croix noire pour zoomer, sur le bouton vert avec un tiret pour effectuer un zoom arrière, ou sur les flèches vertes pour les cartes adjacentes.


METAR-TAF: